createdAt,value
2023-01-29T00:03:33.677Z,74.96
2023-01-29T00:07:35.114Z,73.86
2023-01-29T00:11:38.282Z,73.89
2023-01-29T00:15:39.731Z,74.49
2023-01-29T00:19:41.175Z,75.91
2023-01-29T00:23:43.196Z,76.19
2023-01-29T00:27:45.990Z,75.59
2023-01-29T00:31:47.635Z,75.33
2023-01-29T00:35:49.208Z,73.81
2023-01-29T00:39:50.645Z,74.28
2023-01-29T00:43:53.707Z,73.81
2023-01-29T00:47:55.207Z,74.07
2023-01-29T00:51:56.675Z,73.92
2023-01-29T00:55:58.103Z,75.42
2023-01-29T01:00:01.076Z,74.19
2023-01-29T01:04:02.554Z,74.65
2023-01-29T01:08:04.603Z,74.80
2023-01-29T01:12:06.444Z,74.48
2023-01-29T01:16:11.276Z,74.47
2023-01-29T01:20:12.970Z,73.85
2023-01-29T01:24:14.527Z,74.90
2023-01-29T01:28:16.031Z,74.19
2023-01-29T01:32:18.836Z,73.17
2023-01-29T01:36:20.334Z,73.59
2023-01-29T01:40:23.120Z,73.71
2023-01-29T01:44:51.640Z,74.72
2023-01-29T01:48:59.082Z,74.43
2023-01-29T01:53:06.427Z,74.32
2023-01-29T01:57:11.992Z,73.43
2023-01-29T02:01:13.896Z,73.53
2023-01-29T02:05:16.773Z,73.96
2023-01-29T02:09:22.523Z,73.63
2023-01-29T02:13:24.046Z,75.04
2023-01-29T02:17:25.826Z,75.31
2023-01-29T02:21:44.580Z,75.33
2023-01-29T02:26:15.482Z,75.94
2023-01-29T02:30:26.254Z,75.63
2023-01-29T02:34:38.520Z,76.03
2023-01-29T02:38:47.539Z,75.72
2023-01-29T02:42:53.234Z,75.29
2023-01-29T02:47:01.157Z,75.65
2023-01-29T02:51:06.614Z,75.26
2023-01-29T02:55:13.731Z,75.50
2023-01-29T02:59:19.285Z,75.99
2023-01-29T03:03:26.651Z,76.15
2023-01-29T03:07:34.159Z,76.80
2023-01-29T03:11:39.305Z,77.12
2023-01-29T03:15:46.099Z,76.79
2023-01-29T03:19:49.142Z,75.98
2023-01-29T03:23:53.551Z,76.78
2023-01-29T03:27:58.839Z,77.55
2023-01-29T03:32:00.381Z,77.20
2023-01-29T03:36:08.825Z,77.17
2023-01-29T03:40:11.404Z,77.49
2023-01-29T03:44:16.769Z,77.24
2023-01-29T03:48:30.913Z,77.75
2023-01-29T03:52:42.675Z,77.39
2023-01-29T03:56:55.299Z,77.83
2023-01-29T04:00:58.569Z,77.86
2023-01-29T04:05:05.945Z,76.40
2023-01-29T04:09:12.683Z,77.08
2023-01-29T04:13:17.694Z,78.08
2023-01-29T04:17:25.595Z,78.27
2023-01-29T04:21:27.678Z,78.62
2023-01-29T04:25:41.762Z,78.50
2023-01-29T04:29:57.545Z,77.65
2023-01-29T04:34:08.489Z,78.07
2023-01-29T04:38:18.622Z,78.30
2023-01-29T04:42:29.850Z,78.12
2023-01-29T04:46:38.151Z,76.59
2023-01-29T04:50:44.392Z,77.65
2023-01-29T04:54:56.673Z,78.08
2023-01-29T04:59:04.630Z,77.29
2023-01-29T05:03:07.317Z,78.76
2023-01-29T05:07:12.925Z,77.87
2023-01-29T05:11:15.075Z,78.14
2023-01-29T05:15:21.751Z,78.58
2023-01-29T05:19:23.188Z,77.93
2023-01-29T05:23:24.755Z,77.62
2023-01-29T05:27:34.495Z,77.91
2023-01-29T05:31:37.295Z,78.05
2023-01-29T05:35:38.902Z,77.59
2023-01-29T05:39:40.392Z,77.43
2023-01-29T05:43:41.858Z,77.51
2023-01-29T05:47:44.674Z,77.00
2023-01-29T05:51:46.179Z,76.19
2023-01-29T05:55:48.358Z,77.33
2023-01-29T05:59:49.824Z,76.80
2023-01-29T06:03:52.619Z,75.64
2023-01-29T06:07:54.056Z,75.55
2023-01-29T06:11:55.530Z,76.26
2023-01-29T06:15:57.608Z,76.35
2023-01-29T06:20:00.433Z,75.40
2023-01-29T06:24:01.871Z,76.39
2023-01-29T06:28:03.707Z,76.60
2023-01-29T06:32:05.437Z,75.74
2023-01-29T06:36:09.131Z,76.16
2023-01-29T06:40:11.568Z,75.71
2023-01-29T06:44:13.086Z,75.87
2023-01-29T06:48:14.589Z,75.93
2023-01-29T06:52:17.415Z,75.57
2023-01-29T06:56:18.835Z,75.60
2023-01-29T07:00:21.032Z,75.89
2023-01-29T07:04:22.599Z,75.55
2023-01-29T07:08:25.572Z,75.79
2023-01-29T07:12:27.032Z,75.03
2023-01-29T07:16:28.531Z,76.22
2023-01-29T07:20:30.504Z,75.86
2023-01-29T07:24:33.376Z,75.41
2023-01-29T07:28:36.705Z,75.22
2023-01-29T07:32:38.159Z,76.22
2023-01-29T07:36:39.592Z,75.56
2023-01-29T07:40:42.386Z,75.70
2023-01-29T07:44:43.819Z,75.70
2023-01-29T07:48:45.293Z,75.30
2023-01-29T07:52:46.747Z,74.94
2023-01-29T07:56:49.538Z,75.79
2023-01-29T08:00:51.097Z,74.93
2023-01-29T08:04:52.576Z,75.00
2023-01-29T08:08:54.033Z,74.88
2023-01-29T08:12:58.389Z,74.98
2023-01-29T08:16:59.840Z,75.45
2023-01-29T08:21:02.111Z,73.99
2023-01-29T08:25:20.767Z,74.76
2023-01-29T08:29:23.681Z,74.99
2023-01-29T08:33:39.583Z,73.91
2023-01-29T08:37:41.131Z,74.55
2023-01-29T08:41:42.599Z,74.34
2023-01-29T08:45:45.561Z,75.14
2023-01-29T08:49:47.083Z,74.50
2023-01-29T08:53:50.031Z,73.90
2023-01-29T08:57:52.126Z,73.50
2023-01-29T09:01:54.898Z,73.20
2023-01-29T09:05:56.326Z,74.25
2023-01-29T09:09:57.785Z,73.48
2023-01-29T09:13:59.225Z,72.90
2023-01-29T09:18:04.710Z,72.30
2023-01-29T09:22:06.184Z,73.13
2023-01-29T09:26:08.217Z,73.16
2023-01-29T09:30:11.089Z,72.62
2023-01-29T09:34:13.983Z,72.70
2023-01-29T09:38:15.430Z,73.36
2023-01-29T09:42:23.059Z,73.97
2023-01-29T09:46:31.974Z,72.71
2023-01-29T09:50:38.683Z,72.74
2023-01-29T09:54:50.724Z,73.22
2023-01-29T09:58:52.268Z,72.85
2023-01-29T10:03:13.989Z,73.00
2023-01-29T10:07:30.592Z,72.52
2023-01-29T10:11:42.437Z,71.96
2023-01-29T10:15:58.596Z,71.92
2023-01-29T10:20:18.183Z,72.29
2023-01-29T10:24:32.329Z,72.12
2023-01-29T10:28:37.637Z,72.54
2023-01-29T10:32:39.179Z,73.46
2023-01-29T10:36:44.613Z,73.64
2023-01-29T10:40:55.841Z,72.96
2023-01-29T10:45:09.254Z,72.69
2023-01-29T10:49:25.320Z,72.70
2023-01-29T10:53:46.505Z,73.35
2023-01-29T10:58:01.740Z,72.98
2023-01-29T11:02:14.758Z,72.48
2023-01-29T11:06:21.637Z,72.36
2023-01-29T11:10:24.068Z,72.47
2023-01-29T11:14:29.787Z,72.12
2023-01-29T11:18:49.551Z,73.28
2023-01-29T11:22:54.388Z,73.45
2023-01-29T11:26:58.724Z,73.27
2023-01-29T11:31:02.051Z,73.54
2023-01-29T11:35:19.292Z,72.91
2023-01-29T11:39:22.391Z,73.54
2023-01-29T11:43:29.521Z,73.85
2023-01-29T11:47:32.483Z,73.63
2023-01-29T11:51:36.317Z,73.17
2023-01-29T11:55:49.708Z,73.71
2023-01-29T11:59:54.017Z,74.39
2023-01-29T12:03:57.395Z,73.76
2023-01-29T12:08:01.926Z,72.75
2023-01-29T12:12:26.664Z,73.57
2023-01-29T12:16:33.219Z,72.65
2023-01-29T12:20:38.957Z,72.34
2023-01-29T12:24:49.839Z,73.12
2023-01-29T12:28:59.633Z,71.57
2023-01-29T12:33:09.716Z,72.46
2023-01-29T12:37:21.302Z,72.48
2023-01-29T12:41:33.285Z,72.37
2023-01-29T12:45:37.137Z,72.55
2023-01-29T12:49:41.413Z,72.63
2023-01-29T12:53:50.355Z,72.66
2023-01-29T12:57:56.582Z,73.11
2023-01-29T13:02:05.374Z,72.91
2023-01-29T13:06:10.679Z,73.03
2023-01-29T13:10:18.331Z,73.74
2023-01-29T13:14:24.253Z,72.72
2023-01-29T13:18:43.819Z,72.55
2023-01-29T13:22:47.915Z,71.87
2023-01-29T13:26:51.270Z,73.16
2023-01-29T13:31:18.173Z,73.92
2023-01-29T13:35:22.086Z,73.87
2023-01-29T13:39:28.637Z,73.62
2023-01-29T13:43:36.789Z,73.52
2023-01-29T13:47:39.642Z,73.75
2023-01-29T13:51:41.404Z,73.88
2023-01-29T13:55:43.111Z,73.37
2023-01-29T13:59:54.206Z,73.89
2023-01-29T14:04:05.017Z,73.17
2023-01-29T14:08:41.842Z,74.07
2023-01-29T14:12:46.814Z,73.35
2023-01-29T14:16:50.002Z,73.88
2023-01-29T14:20:56.319Z,73.65
2023-01-29T14:25:01.649Z,73.84
2023-01-29T14:29:18.770Z,73.97
2023-01-29T14:33:27.272Z,74.77
2023-01-29T14:37:33.289Z,73.50
2023-01-29T14:41:36.115Z,74.07
2023-01-29T14:45:40.284Z,74.89
2023-01-29T14:49:49.742Z,74.83
2023-01-29T14:53:59.240Z,74.77
2023-01-29T14:58:02.630Z,74.59
2023-01-29T15:02:18.666Z,74.37
2023-01-29T15:06:28.638Z,74.97
2023-01-29T15:10:38.190Z,75.35
2023-01-29T15:14:47.605Z,74.83
2023-01-29T15:18:54.939Z,75.45
2023-01-29T15:22:56.776Z,76.04
2023-01-29T15:26:58.603Z,75.91
2023-01-29T15:31:01.724Z,76.64
2023-01-29T15:35:11.233Z,76.79
2023-01-29T15:39:16.426Z,77.19
2023-01-29T15:43:21.237Z,77.15
2023-01-29T15:47:26.660Z,78.13
2023-01-29T15:51:29.539Z,77.52
2023-01-29T15:55:32.085Z,77.23
2023-01-29T15:59:38.758Z,77.31
2023-01-29T16:03:40.209Z,76.88
2023-01-29T16:07:44.326Z,77.10
2023-01-29T16:11:47.117Z,76.78
2023-01-29T16:15:56.485Z,76.92
2023-01-29T16:19:59.872Z,76.27
2023-01-29T16:24:06.169Z,76.54
2023-01-29T16:28:09.517Z,76.03
2023-01-29T16:32:11.409Z,75.92
2023-01-29T16:36:17.226Z,75.90
2023-01-29T16:40:28.436Z,75.84
2023-01-29T16:44:35.514Z,74.96
2023-01-29T16:48:37.017Z,75.65
2023-01-29T16:52:38.475Z,76.05
2023-01-29T16:56:44.920Z,76.78
2023-01-29T17:00:47.272Z,76.72
2023-01-29T17:04:49.216Z,76.59
2023-01-29T17:08:51.581Z,76.42
2023-01-29T17:12:58.009Z,76.38
2023-01-29T17:17:02.641Z,76.08
2023-01-29T17:21:04.158Z,75.16
2023-01-29T17:25:06.131Z,75.04
2023-01-29T17:29:13.283Z,75.36
2023-01-29T17:33:16.288Z,75.75
2023-01-29T17:37:17.767Z,75.32
2023-01-29T17:41:24.419Z,74.69
2023-01-29T17:45:27.307Z,74.18
2023-01-29T17:49:30.144Z,74.39
2023-01-29T17:53:44.888Z,73.27
2023-01-29T17:57:48.265Z,73.49
2023-01-29T18:01:51.923Z,73.80
2023-01-29T18:05:53.385Z,73.26
2023-01-29T18:09:54.923Z,73.41
2023-01-29T18:13:57.098Z,73.16
2023-01-29T18:17:59.907Z,73.73
2023-01-29T18:22:01.353Z,73.23
2023-01-29T18:26:02.925Z,73.58
2023-01-29T18:30:05.605Z,73.07
2023-01-29T18:34:08.540Z,73.20
2023-01-29T18:38:10.148Z,73.39
2023-01-29T18:42:11.590Z,73.05
2023-01-29T18:46:13.090Z,73.11
2023-01-29T18:50:16.724Z,73.12
2023-01-29T18:54:18.281Z,74.00
2023-01-29T18:58:26.683Z,73.62
2023-01-29T19:02:35.559Z,73.22
2023-01-29T19:06:38.398Z,72.88
2023-01-29T19:10:39.849Z,73.73
2023-01-29T19:14:41.347Z,74.98
2023-01-29T19:18:42.892Z,74.59
2023-01-29T19:22:45.813Z,73.56
2023-01-29T19:26:47.310Z,73.63
2023-01-29T19:30:48.864Z,73.88
2023-01-29T19:34:50.501Z,73.49
2023-01-29T19:38:53.400Z,72.82
2023-01-29T19:42:55.454Z,73.73
2023-01-29T19:46:56.963Z,73.97
2023-01-29T19:51:02.928Z,73.14
2023-01-29T19:55:07.695Z,73.71
2023-01-29T19:59:10.467Z,73.40
2023-01-29T20:03:11.976Z,73.66
2023-01-29T20:07:13.446Z,72.60
2023-01-29T20:11:18.364Z,73.59
2023-01-29T20:15:20.018Z,73.54
2023-01-29T20:19:21.520Z,74.33
2023-01-29T20:23:36.696Z,74.45
2023-01-29T20:27:40.758Z,74.60
2023-01-29T20:31:43.226Z,75.53
2023-01-29T20:35:44.695Z,75.76
2023-01-29T20:39:46.605Z,76.25
2023-01-29T20:43:49.463Z,75.51
2023-01-29T20:47:50.912Z,75.04
2023-01-29T20:51:52.353Z,74.96
2023-01-29T20:55:53.886Z,75.71
2023-01-29T20:59:56.778Z,75.20
2023-01-29T21:03:58.270Z,74.61
2023-01-29T21:07:59.764Z,74.73
2023-01-29T21:12:01.343Z,75.94
2023-01-29T21:16:04.700Z,75.43
2023-01-29T21:20:07.249Z,74.24
2023-01-29T21:24:09.091Z,73.67
2023-01-29T21:28:11.002Z,74.00
2023-01-29T21:32:14.160Z,74.15
2023-01-29T21:36:15.643Z,73.56
2023-01-29T21:40:18.111Z,73.95
2023-01-29T21:44:19.730Z,74.28
2023-01-29T21:48:22.707Z,73.69
2023-01-29T21:52:24.316Z,74.07
2023-01-29T21:56:25.772Z,74.49
2023-01-29T22:00:27.817Z,73.76
2023-01-29T22:04:30.594Z,74.34
2023-01-29T22:08:32.121Z,73.17
2023-01-29T22:12:33.765Z,73.54
2023-01-29T22:16:35.414Z,73.80
2023-01-29T22:20:38.225Z,73.05
2023-01-29T22:24:39.663Z,73.34
2023-01-29T22:28:41.109Z,73.16
2023-01-29T22:32:42.571Z,73.15
2023-01-29T22:36:45.392Z,73.39
2023-01-29T22:40:49.168Z,73.80
2023-01-29T22:44:50.623Z,72.97
2023-01-29T22:48:52.262Z,73.31
2023-01-29T22:52:55.057Z,72.75
2023-01-29T22:56:56.594Z,73.48
2023-01-29T23:00:58.244Z,72.52
2023-01-29T23:04:59.696Z,72.91
2023-01-29T23:09:02.466Z,72.73
2023-01-29T23:13:04.015Z,72.89
2023-01-29T23:17:05.548Z,72.59
2023-01-29T23:21:07.361Z,73.03
2023-01-29T23:25:10.468Z,72.95
2023-01-29T23:29:12.551Z,72.73
2023-01-29T23:33:14.052Z,72.65
2023-01-29T23:37:15.673Z,73.47
2023-01-29T23:41:18.510Z,73.08
2023-01-29T23:45:19.951Z,72.95
2023-01-29T23:49:21.790Z,72.33
2023-01-29T23:53:23.413Z,72.39
2023-01-29T23:57:26.233Z,72.04
